Time;durP1;ratioP1;P1;durP2;ratioP2;P2;SDS_P1;SDS_P2;PMS_P1;PMS_P2;Temp;Humidity;BMP_temperature;BMP_pressure;BME280_temperature;BME280_humidity;BME280_pressure;Samples;Min_cycle;Max_cycle;Signal;HPM_P1;HPM_P2
2021/06/05 00:01:31;;;;;;;21.58;6.10;;;21.10;64.50;;;;;;5070773;28;20499;-68
2021/06/05 00:04:35;;;;;;;17.58;5.75;;;21.10;64.80;;;;;;5070899;28;20060;-68
2021/06/05 00:07:39;;;;;;;11.18;5.82;;;21.10;64.60;;;;;;5070855;28;20047;-68
2021/06/05 00:10:47;;;;;;;12.60;5.63;;;20.70;65.40;;;;;;5070924;28;20043;-68
2021/06/05 00:13:57;;;;;;;11.27;5.70;;;20.50;66.10;;;;;;5070886;28;20498;-68
2021/06/05 00:17:02;;;;;;;12.13;5.20;;;20.40;66.50;;;;;;5070894;28;20047;-68
2021/06/05 00:20:08;;;;;;;11.20;5.18;;;20.60;65.20;;;;;;5070888;28;20051;-68
2021/06/05 00:23:15;;;;;;;7.15;4.47;;;20.70;64.30;;;;;;5070638;28;20040;-68
2021/06/05 00:26:19;;;;;;;12.27;5.35;;;20.80;64.00;;;;;;5070770;28;20047;-68
2021/06/05 00:29:23;;;;;;;7.55;5.15;;;20.80;63.60;;;;;;5070917;28;20043;-68
2021/06/05 00:32:27;;;;;;;9.13;4.95;;;20.90;63.60;;;;;;5070075;28;20036;-68
2021/06/05 00:35:33;;;;;;;14.77;5.20;;;20.90;62.60;;;;;;5070478;28;20382;-68
2021/06/05 00:38:37;;;;;;;7.70;4.38;;;20.90;62.60;;;;;;5070353;28;20047;-68
2021/06/05 00:41:42;;;;;;;15.65;5.15;;;20.90;62.50;;;;;;5069252;28;20036;-68
2021/06/05 00:44:47;;;;;;;9.90;5.30;;;20.80;63.20;;;;;;5070303;28;20518;-68
2021/06/05 00:47:51;;;;;;;11.32;5.07;;;20.70;63.70;;;;;;5070360;28;20044;-68
2021/06/05 00:50:56;;;;;;;10.30;5.05;;;20.70;63.00;;;;;;5069358;28;20047;-68
2021/06/05 00:54:07;;;;;;;11.35;4.97;;;20.60;63.10;;;;;;5069571;28;20048;-68
2021/06/05 00:57:12;;;;;;;6.78;4.43;;;20.60;62.60;;;;;;5057912;28;20366;-68
2021/06/05 01:00:34;;;;;;;11.48;4.88;;;20.60;62.70;;;;;;5069392;28;20048;-68
2021/06/05 01:03:39;;;;;;;13.93;4.50;;;20.50;63.30;;;;;;5069556;28;20051;-68
2021/06/05 01:07:10;;;;;;;20.05;5.53;;;20.40;63.40;;;;;;5073415;28;20399;-68
2021/06/05 01:10:26;;;;;;;8.95;4.72;;;20.40;64.20;;;;;;5073363;28;20043;-68
2021/06/05 01:14:01;;;;;;;14.15;4.53;;;20.00;64.00;;;;;;5074301;28;20043;-68
2021/06/05 01:17:37;;;;;;;11.02;5.00;;;19.80;65.00;;;;;;5074197;28;20490;-68
2021/06/05 01:20:58;;;;;;;7.72;4.40;;;19.90;65.00;;;;;;5073456;28;20510;-68
2021/06/05 01:24:37;;;;;;;15.77;4.68;;;20.00;63.80;;;;;;5073436;28;20032;-68
2021/06/05 01:27:48;;;;;;;10.80;3.97;;;20.00;63.10;;;;;;5074135;28;20099;-68
2021/06/05 01:30:55;;;;;;;9.15;3.97;;;19.80;63.00;;;;;;5072719;28;20036;-68
2021/06/05 01:34:02;;;;;;;9.07;4.05;;;19.70;63.00;;;;;;5073212;28;20073;-68
2021/06/05 01:37:10;;;;;;;6.13;3.53;;;19.50;63.20;;;;;;5073599;28;20029;-68
2021/06/05 01:40:25;;;;;;;7.40;3.63;;;19.30;63.60;;;;;;5073491;28;20050;-68
2021/06/05 01:43:30;;;;;;;11.13;3.65;;;19.30;64.00;;;;;;5073796;28;20045;-68
2021/06/05 01:46:41;;;;;;;9.98;3.28;;;19.50;63.50;;;;;;5073490;28;20052;-68
2021/06/05 01:49:48;;;;;;;7.43;3.60;;;19.60;63.40;;;;;;5073320;28;20040;-68
2021/06/05 01:52:55;;;;;;;11.63;4.03;;;19.70;63.40;;;;;;5072576;28;20047;-68
2021/06/05 01:56:14;;;;;;;10.60;3.50;;;19.60;63.60;;;;;;5073442;28;20055;-68
2021/06/05 01:59:19;;;;;;;6.40;4.30;;;19.50;64.20;;;;;;5073574;28;20055;-68
2021/06/05 02:02:30;;;;;;;5.97;4.35;;;19.50;64.30;;;;;;5073266;28;20051;-68
2021/06/05 02:05:42;;;;;;;;;;;19.50;64.30;;;;;;5072756;28;20519;-68
2021/06/05 02:08:54;;;;;;;7.28;4.35;;;19.40;65.10;;;;;;5072192;28;19920;-68
2021/06/05 02:12:14;;;;;;;9.55;4.65;;;19.40;65.50;;;;;;5072318;28;20036;-68
2021/06/05 02:15:27;;;;;;;12.93;5.22;;;19.50;65.40;;;;;;5072956;28;20448;-68
2021/06/05 02:18:39;;;;;;;8.20;4.57;;;19.40;65.30;;;;;;5072051;28;20039;-68
2021/06/05 02:21:48;;;;;;;9.38;4.70;;;18.90;66.30;;;;;;5073079;28;20052;-68
2021/06/05 02:24:57;;;;;;;8.70;4.32;;;18.90;66.30;;;;;;5071825;28;20056;-68
2021/06/05 02:28:06;;;;;;;10.77;5.07;;;18.90;66.20;;;;;;5072130;28;20035;-68
2021/06/05 02:31:12;;;;;;;10.50;4.15;;;18.70;65.70;;;;;;5073065;28;20060;-68
2021/06/05 02:34:20;;;;;;;9.48;5.53;;;18.80;66.20;;;;;;5072827;28;20044;-68
2021/06/05 02:37:29;;;;;;;11.65;6.65;;;19.00;65.40;;;;;;5071856;28;20098;-68
2021/06/05 02:40:37;;;;;;;19.65;9.20;;;19.10;65.40;;;;;;5071502;28;20507;-68
2021/06/05 02:43:44;;;;;;;18.95;9.68;;;18.90;67.60;;;;;;5071542;28;20044;-68
2021/06/05 02:46:49;;;;;;;16.88;9.52;;;18.80;68.20;;;;;;5071504;28;20071;-68
2021/06/05 02:49:54;;;;;;;16.23;8.15;;;18.90;68.60;;;;;;5071513;28;20039;-68
2021/06/05 02:53:04;;;;;;;11.98;7.38;;;19.00;68.10;;;;;;5071382;28;20055;-68
2021/06/05 02:56:10;;;;;;;17.42;8.82;;;19.00;67.20;;;;;;5072013;28;20048;-68
2021/06/05 02:59:14;;;;;;;18.15;8.85;;;19.00;68.20;;;;;;5072305;28;20051;-68
2021/06/05 03:02:24;;;;;;;18.60;8.52;;;19.00;68.60;;;;;;5071177;28;20498;-68
2021/06/05 03:05:29;;;;;;;13.13;6.93;;;19.00;68.90;;;;;;5071756;28;20429;-68
2021/06/05 03:08:35;;;;;;;16.48;7.07;;;19.20;68.50;;;;;;5071827;28;20036;-68
2021/06/05 03:11:39;;;;;;;12.27;6.72;;;19.20;68.60;;;;;;5071049;28;20047;-68
2021/06/05 03:14:43;;;;;;;15.13;6.65;;;19.10;68.30;;;;;;5072135;28;20063;-68
2021/06/05 03:17:47;;;;;;;16.60;6.40;;;18.80;68.80;;;;;;5071212;28;20585;-68
2021/06/05 03:20:54;;;;;;;7.95;5.60;;;18.80;69.60;;;;;;5071062;28;20040;-68
2021/06/05 03:24:00;;;;;;;15.05;5.97;;;18.80;69.10;;;;;;5070819;28;20044;-68
2021/06/05 03:27:10;;;;;;;12.13;6.05;;;18.90;68.60;;;;;;5070163;28;20233;-68
2021/06/05 03:30:19;;;;;;;11.50;5.90;;;19.00;68.20;;;;;;5071543;28;20040;-68
2021/06/05 03:33:27;;;;;;;8.95;5.75;;;19.00;67.50;;;;;;5070565;28;20056;-68
2021/06/05 03:36:32;;;;;;;11.60;5.30;;;19.20;67.40;;;;;;5070594;28;20037;-68
2021/06/05 03:39:40;;;;;;;8.90;5.20;;;19.30;66.70;;;;;;5070818;28;20122;-68
2021/06/05 03:42:46;;;;;;;13.50;5.63;;;19.40;66.10;;;;;;5070467;28;20052;-68
2021/06/05 03:45:53;;;;;;;11.40;6.05;;;19.40;66.00;;;;;;5070354;28;20048;-68
2021/06/05 03:48:57;;;;;;;29.25;7.63;;;19.40;66.10;;;;;;5071267;28;20055;-68
2021/06/05 03:52:03;;;;;;;14.25;6.93;;;19.40;66.00;;;;;;5071043;28;20051;-68
2021/06/05 03:55:12;;;;;;;12.60;6.18;;;19.50;65.80;;;;;;5058974;28;20052;-68
2021/06/05 03:58:24;;;;;;;16.90;7.28;;;19.60;66.10;;;;;;5071249;28;20051;-68
2021/06/05 04:01:29;;;;;;;13.30;7.40;;;19.50;66.40;;;;;;5071220;28;20507;-68
2021/06/05 04:04:34;;;;;;;11.90;6.45;;;19.40;66.70;;;;;;5070693;28;20040;-68
2021/06/05 04:07:38;;;;;;;10.38;6.32;;;19.30;66.80;;;;;;5071172;28;20052;-68
2021/06/05 04:10:42;;;;;;;11.38;6.05;;;19.30;65.70;;;;;;5070727;28;20522;-68
2021/06/05 04:13:46;;;;;;;9.32;6.40;;;19.40;66.00;;;;;;5070874;28;20067;-68
2021/06/05 04:16:50;;;;;;;9.13;5.38;;;19.50;65.90;;;;;;5070630;28;20047;-68
2021/06/05 04:19:54;;;;;;;13.07;6.80;;;19.50;65.90;;;;;;5070972;28;20453;-68
2021/06/05 04:22:58;;;;;;;9.38;6.18;;;19.60;66.00;;;;;;5071093;28;20043;-68
2021/06/05 04:26:03;;;;;;;11.88;6.82;;;19.50;66.50;;;;;;5070514;28;20045;-68
2021/06/05 04:29:07;;;;;;;15.93;7.80;;;19.50;67.20;;;;;;5070932;28;20048;-68
2021/06/05 04:32:11;;;;;;;17.65;7.70;;;19.50;67.40;;;;;;5070442;28;20436;-68
2021/06/05 04:35:16;;;;;;;14.95;8.35;;;19.50;67.30;;;;;;5070850;28;20380;-68
2021/06/05 04:38:22;;;;;;;16.00;9.57;;;19.50;67.90;;;;;;5071433;28;20043;-68
2021/06/05 04:41:26;;;;;;;21.73;10.05;;;19.50;68.00;;;;;;5074992;28;20052;-68
2021/06/05 04:44:30;;;;;;;19.60;9.52;;;19.40;67.90;;;;;;5073777;28;20064;-68
2021/06/05 04:47:35;;;;;;;23.90;9.43;;;19.50;67.80;;;;;;5074727;28;20427;-68
2021/06/05 04:50:40;;;;;;;27.75;9.73;;;19.60;67.70;;;;;;5074431;28;20044;-68
2021/06/05 04:53:45;;;;;;;22.23;9.75;;;19.60;67.70;;;;;;5074436;28;20052;-68
2021/06/05 04:56:50;;;;;;;26.85;10.70;;;19.60;68.40;;;;;;5074356;28;20499;-68
2021/06/05 04:59:54;;;;;;;21.52;10.48;;;19.60;68.40;;;;;;5074339;28;20044;-68
2021/06/05 05:02:58;;;;;;;25.70;11.35;;;19.70;68.60;;;;;;5074551;28;20383;-68
2021/06/05 05:06:03;;;;;;;24.75;11.60;;;19.70;69.60;;;;;;5074132;28;20399;-68
2021/06/05 05:09:10;;;;;;;24.85;13.45;;;19.80;69.60;;;;;;5074479;28;20039;-68
2021/06/05 05:12:14;;;;;;;26.20;13.00;;;20.00;69.10;;;;;;5074457;28;20055;-68
2021/06/05 05:15:18;;;;;;;34.75;13.52;;;20.10;69.40;;;;;;5074302;28;20064;-68
2021/06/05 05:18:23;;;;;;;27.92;13.63;;;20.00;69.90;;;;;;5073989;28;20043;-68
2021/06/05 05:21:28;;;;;;;31.40;13.05;;;20.00;70.10;;;;;;5074227;28;20040;-68
2021/06/05 05:24:32;;;;;;;22.65;13.40;;;19.80;71.00;;;;;;5073726;28;20067;-68
2021/06/05 05:27:36;;;;;;;26.05;12.73;;;19.90;70.80;;;;;;5074002;28;20541;-68
2021/06/05 05:30:49;;;;;;;29.75;13.75;;;20.10;70.40;;;;;;5074009;28;20048;-68
2021/06/05 05:33:53;;;;;;;19.45;12.70;;;20.20;69.80;;;;;;5074028;28;20063;-68
2021/06/05 05:36:57;;;;;;;26.88;14.57;;;20.40;69.80;;;;;;5073984;28;20048;-68
2021/06/05 05:40:01;;;;;;;29.95;15.13;;;20.50;69.60;;;;;;5073380;28;20047;-68
2021/06/05 05:43:06;;;;;;;39.50;15.75;;;20.50;69.90;;;;;;5073587;28;20047;-68
2021/06/05 05:46:11;;;;;;;45.45;15.32;;;20.30;70.80;;;;;;5073544;28;20052;-68
2021/06/05 05:49:15;;;;;;;36.90;16.08;;;20.30;71.30;;;;;;5073505;28;20047;-68
2021/06/05 05:52:19;;;;;;;38.85;15.02;;;20.30;71.10;;;;;;5072715;28;20048;-66
2021/06/05 05:55:23;;;;;;;40.53;15.05;;;20.30;71.50;;;;;;5073589;28;20055;-66
2021/06/05 05:58:27;;;;;;;33.65;15.13;;;20.50;71.50;;;;;;5073303;28;20039;-66
2021/06/05 06:01:32;;;;;;;38.13;14.15;;;20.60;70.90;;;;;;5073282;28;20468;-66
2021/06/05 06:04:36;;;;;;;37.42;13.77;;;20.70;70.20;;;;;;5072834;28;20039;-59
2021/06/05 06:07:41;;;;;;;32.70;13.90;;;20.70;69.80;;;;;;5073333;28;20396;-59
2021/06/05 06:10:45;;;;;;;41.15;13.23;;;20.70;69.20;;;;;;5072992;28;20036;-59
2021/06/05 06:13:50;;;;;;;37.35;13.43;;;20.80;69.80;;;;;;5073194;28;20039;-59
2021/06/05 06:16:55;;;;;;;39.95;12.27;;;20.80;69.60;;;;;;5073228;28;20047;-59
2021/06/05 06:19:58;;;;;;;50.38;12.52;;;20.90;68.90;;;;;;5072736;28;20052;-59
2021/06/05 06:23:02;;;;;;;39.20;11.38;;;21.10;67.70;;;;;;5072765;28;20043;-59
2021/06/05 06:26:14;;;;;;;35.88;11.52;;;21.20;66.80;;;;;;5072635;28;20047;-59
2021/06/05 06:29:20;;;;;;;27.65;11.18;;;21.40;66.50;;;;;;5072947;28;20043;-59
2021/06/05 06:32:25;;;;;;;25.40;11.77;;;21.50;66.60;;;;;;5072516;28;20055;-59
2021/06/05 06:35:31;;;;;;;29.52;10.27;;;21.60;66.40;;;;;;5072412;28;20035;-59
2021/06/05 06:38:39;;;;;;;20.08;9.85;;;21.80;66.00;;;;;;5072864;28;20051;-59
2021/06/05 06:41:44;;;;;;;22.15;9.75;;;22.00;65.40;;;;;;5072159;28;20047;-59
2021/06/05 06:44:48;;;;;;;17.85;8.98;;;22.10;64.30;;;;;;5072257;28;20571;-59
2021/06/05 06:47:54;;;;;;;15.93;8.48;;;22.30;64.00;;;;;;5072601;28;20052;-59
2021/06/05 06:50:58;;;;;;;16.95;7.20;;;22.40;63.80;;;;;;5072328;28;20052;-59
2021/06/05 06:54:04;;;;;;;11.13;6.68;;;22.60;63.90;;;;;;5072182;28;20044;-59
2021/06/05 06:57:08;;;;;;;16.33;8.05;;;22.70;64.10;;;;;;5072527;28;20043;-59
2021/06/05 07:00:16;;;;;;;17.75;8.40;;;22.70;64.40;;;;;;5072101;28;20052;-59
2021/06/05 07:03:20;;;;;;;18.63;7.22;;;22.70;64.70;;;;;;5070901;28;20043;-59
2021/06/05 07:06:27;;;;;;;18.52;6.78;;;22.80;64.80;;;;;;5071669;28;20051;-59
2021/06/05 07:09:32;;;;;;;12.02;6.28;;;22.80;65.00;;;;;;5072239;28;20054;-59
2021/06/05 07:12:37;;;;;;;16.17;6.28;;;22.80;65.20;;;;;;5071997;28;20051;-59
2021/06/05 07:15:41;;;;;;;9.43;5.78;;;22.90;65.60;;;;;;5071961;28;20047;-59
2021/06/05 07:18:45;;;;;;;14.07;7.80;;;22.90;65.90;;;;;;5071705;28;20037;-59
2021/06/05 07:21:50;;;;;;;23.50;9.45;;;23.00;66.60;;;;;;5071380;28;20039;-59
2021/06/05 07:24:54;;;;;;;24.15;9.35;;;22.90;66.60;;;;;;5071314;28;20404;-59
2021/06/05 07:28:08;;;;;;;16.45;8.50;;;22.90;67.00;;;;;;5071497;28;20047;-59
2021/06/05 07:31:17;;;;;;;11.75;7.18;;;22.90;67.10;;;;;;5071381;28;20047;-59
2021/06/05 07:34:24;;;;;;;10.98;4.97;;;23.00;67.60;;;;;;5071291;28;20055;-59
2021/06/05 07:37:28;;;;;;;6.70;4.30;;;23.00;68.70;;;;;;5071297;28;20047;-59
2021/06/05 07:40:32;;;;;;;13.18;4.50;;;23.10;68.90;;;;;;5071418;28;20388;-60
2021/06/05 07:43:39;;;;;;;7.30;4.38;;;23.20;68.80;;;;;;5070998;28;20047;-60
2021/06/05 07:46:54;;;;;;;9.32;3.85;;;23.30;69.40;;;;;;5071337;28;20400;-60
2021/06/05 07:49:58;;;;;;;5.90;3.75;;;23.30;69.90;;;;;;5071503;28;20055;-59
2021/06/05 07:53:02;;;;;;;8.63;4.35;;;23.40;68.70;;;;;;5070891;28;20048;-59
2021/06/05 07:56:06;;;;;;;8.05;4.05;;;23.50;67.70;;;;;;5071208;28;20043;-59
2021/06/05 07:59:10;;;;;;;5.63;3.45;;;23.50;67.80;;;;;;5071302;28;20388;-60
2021/06/05 08:02:15;;;;;;;6.38;3.85;;;23.70;67.70;;;;;;5070812;28;20488;-59
2021/06/05 08:05:20;;;;;;;11.38;3.90;;;23.80;66.60;;;;;;5070795;28;20037;-59
2021/06/05 08:08:25;;;;;;;6.10;3.67;;;23.90;65.40;;;;;;5070081;28;20043;-59
2021/06/05 08:11:29;;;;;;;13.27;4.25;;;23.90;65.10;;;;;;5070753;28;20040;-59
2021/06/05 08:14:34;;;;;;;20.02;6.60;;;24.00;64.70;;;;;;5070393;28;20039;-59
2021/06/05 08:17:38;;;;;;;30.50;8.68;;;23.90;65.50;;;;;;5070916;28;20052;-59
2021/06/05 08:20:43;;;;;;;18.27;8.35;;;23.90;65.40;;;;;;5070594;28;20044;-59
2021/06/05 08:23:48;;;;;;;24.95;7.75;;;23.90;65.50;;;;;;5070556;28;20040;-60
2021/06/05 08:26:52;;;;;;;24.20;7.88;;;23.80;65.20;;;;;;5070387;28;20055;-59
2021/06/05 08:29:56;;;;;;;26.38;8.35;;;23.80;64.90;;;;;;5070399;28;20040;-59
2021/06/05 08:33:00;;;;;;;19.38;8.27;;;23.80;64.00;;;;;;5069873;28;20060;-59
2021/06/05 08:36:06;;;;;;;17.35;7.05;;;23.80;64.80;;;;;;5069360;28;20509;-59
2021/06/05 08:39:13;;;;;;;16.83;7.38;;;23.90;64.20;;;;;;5069951;28;20043;-60
2021/06/05 08:42:28;;;;;;;20.95;7.65;;;23.90;64.10;;;;;;5070712;28;20048;-59
2021/06/05 08:45:34;;;;;;;18.00;8.13;;;23.90;63.60;;;;;;5070470;28;20420;-59
2021/06/05 08:48:38;;;;;;;24.77;8.20;;;23.90;63.80;;;;;;5070713;28;20051;-59
2021/06/05 08:52:08;;;;;;;21.00;7.57;;;23.90;63.50;;;;;;5070555;28;20411;-59
2021/06/05 08:55:38;;;;;;;24.77;7.40;;;23.90;63.40;;;;;;5070380;28;20035;-59
2021/06/05 08:58:48;;;;;;;15.15;7.20;;;23.90;62.50;;;;;;5069523;28;20047;-59
2021/06/05 09:01:54;;;;;;;23.33;8.35;;;23.80;62.60;;;;;;5069583;28;20039;-59
2021/06/05 09:05:02;;;;;;;22.23;8.00;;;23.90;63.40;;;;;;5070249;28;20059;-59
2021/06/05 09:08:07;;;;;;;18.73;7.80;;;23.90;61.60;;;;;;5070312;28;20372;-59
2021/06/05 09:11:13;;;;;;;20.10;8.65;;;24.00;61.40;;;;;;5070409;28;20048;-59
2021/06/05 09:14:18;;;;;;;17.48;7.63;;;23.90;61.10;;;;;;5070143;28;20595;-59
2021/06/05 09:17:48;;;;;;;13.75;7.25;;;23.90;61.10;;;;;;5070204;28;20044;-59
2021/06/05 09:21:05;;;;;;;20.48;8.02;;;24.00;60.90;;;;;;5069483;28;20048;-59
2021/06/05 09:24:20;;;;;;;19.52;8.35;;;24.10;60.10;;;;;;5070401;28;20048;-60
2021/06/05 09:27:28;;;;;;;17.23;7.40;;;24.10;60.70;;;;;;5073808;28;20051;-59
2021/06/05 09:30:37;;;;;;;21.70;8.10;;;24.10;57.00;;;;;;5073640;28;20048;-59
2021/06/05 09:33:41;;;;;;;19.98;7.28;;;24.20;57.70;;;;;;5073997;28;20055;-59
2021/06/05 09:36:48;;;;;;;28.80;8.65;;;24.20;57.00;;;;;;5074130;28;20048;-59
2021/06/05 09:40:25;;;;;;;20.92;8.02;;;24.30;57.60;;;;;;5073649;28;20063;-59
2021/06/05 09:43:29;;;;;;;16.60;8.05;;;24.30;56.80;;;;;;5074138;28;20044;-59
2021/06/05 09:46:34;;;;;;;14.73;7.80;;;24.30;57.70;;;;;;5073866;28;20055;-59
2021/06/05 09:49:47;;;;;;;16.38;7.97;;;24.40;56.30;;;;;;5073351;28;20039;-59
2021/06/05 09:52:52;;;;;;;18.00;8.80;;;24.50;57.10;;;;;;5073626;28;20048;-59
2021/06/05 09:56:03;;;;;;;24.98;8.60;;;24.50;56.10;;;;;;5073379;28;20056;-60
2021/06/05 09:59:16;;;;;;;27.65;8.73;;;24.60;54.20;;;;;;5073851;28;20047;-59
2021/06/05 10:02:22;;;;;;;15.25;7.65;;;24.80;55.20;;;;;;5073433;28;20043;-59
2021/06/05 10:05:33;;;;;;;18.13;8.25;;;24.90;55.60;;;;;;5073235;28;20392;-59
2021/06/05 10:08:40;;;;;;;29.50;8.98;;;24.90;56.60;;;;;;5073441;28;20047;-59
2021/06/05 10:11:45;;;;;;;13.45;7.32;;;25.10;55.40;;;;;;5073128;28;20091;-59
2021/06/05 10:15:06;;;;;;;13.88;7.57;;;25.10;54.90;;;;;;5072418;28;20051;-60
2021/06/05 10:18:18;;;;;;;18.25;7.03;;;25.20;54.30;;;;;;5072833;28;20400;-60
2021/06/05 10:21:38;;;;;;;13.70;7.43;;;25.30;54.40;;;;;;5073057;28;20405;-60
2021/06/05 10:25:04;;;;;;;13.55;7.55;;;25.30;54.10;;;;;;5072711;28;20044;-59
2021/06/05 10:28:19;;;;;;;13.43;7.22;;;25.40;54.70;;;;;;5072815;28;20411;-59
2021/06/05 10:31:25;;;;;;;17.75;7.10;;;25.40;54.00;;;;;;5072226;28;20044;-60
2021/06/05 10:35:04;;;;;;;16.70;7.30;;;25.50;53.00;;;;;;5072645;28;20059;-59
2021/06/05 10:38:26;;;;;;;25.70;8.38;;;25.50;52.70;;;;;;5072617;28;20043;-59
2021/06/05 10:41:38;;;;;;;14.43;6.72;;;25.60;53.70;;;;;;5072501;28;20048;-59
2021/06/05 10:44:42;;;;;;;12.45;6.55;;;25.60;53.50;;;;;;5072113;28;20051;-60
2021/06/05 10:48:01;;;;;;;26.23;7.47;;;25.70;52.30;;;;;;5072041;28;20071;-60
2021/06/05 10:51:23;;;;;;;19.98;8.48;;;25.80;52.80;;;;;;5071247;28;20044;-60
2021/06/05 10:54:29;;;;;;;13.02;7.95;;;25.90;52.90;;;;;;5071976;28;20467;-60
2021/06/05 10:57:37;;;;;;;15.40;7.65;;;25.90;52.50;;;;;;5072428;28;20044;-60
2021/06/05 11:00:46;;;;;;;19.30;7.78;;;26.00;53.20;;;;;;5071495;28;20503;-60
2021/06/05 11:03:56;;;;;;;14.75;8.30;;;26.10;53.30;;;;;;5071212;28;20064;-60
2021/06/05 11:07:03;;;;;;;18.50;8.85;;;26.20;52.90;;;;;;5071879;28;20063;-60
2021/06/05 11:10:07;;;;;;;15.63;7.43;;;26.30;53.00;;;;;;5071795;28;20107;-60
2021/06/05 11:13:31;;;;;;;20.38;7.63;;;26.30;52.40;;;;;;5071924;28;20047;-60
2021/06/05 11:16:57;;;;;;;13.35;6.38;;;26.30;51.80;;;;;;5071520;28;20036;-60
2021/06/05 11:20:05;;;;;;;14.05;6.88;;;26.30;51.90;;;;;;5070918;28;20051;-60
2021/06/05 11:23:13;;;;;;;13.07;6.20;;;26.30;52.80;;;;;;5071471;28;20052;-60
2021/06/05 11:26:42;;;;;;;14.80;5.15;;;26.40;52.60;;;;;;5071576;28;20051;-60
2021/06/05 11:29:53;;;;;;;18.13;4.13;;;26.50;52.80;;;;;;5071643;28;20047;-60
2021/06/05 11:33:10;;;;;;;8.40;2.70;;;26.50;51.70;;;;;;5071231;28;20412;-60
2021/06/05 11:36:33;;;;;;;7.93;2.47;;;26.50;48.00;;;;;;5070619;28;20036;-60
2021/06/05 11:39:49;;;;;;;14.95;4.95;;;26.50;46.00;;;;;;5071381;28;20036;-60
2021/06/05 11:42:55;;;;;;;6.80;2.75;;;26.60;45.70;;;;;;5070020;28;20051;-60
2021/06/05 11:46:01;;;;;;;15.20;2.67;;;26.60;46.30;;;;;;5070123;28;20044;-60
2021/06/05 11:49:07;;;;;;;5.63;2.65;;;26.60;46.70;;;;;;5070498;28;20396;-60
2021/06/05 11:52:26;;;;;;;9.95;2.88;;;26.50;47.60;;;;;;5071014;28;20045;-60
2021/06/05 11:55:36;;;;;;;6.45;3.03;;;26.50;48.80;;;;;;5071546;28;20045;-60
2021/06/05 11:58:40;;;;;;;5.57;3.17;;;26.40;50.00;;;;;;5071320;28;20041;-60
2021/06/05 12:01:44;;;;;;;15.05;2.92;;;26.30;50.00;;;;;;5071128;28;20397;-60
2021/06/05 12:05:04;;;;;;;5.07;2.60;;;26.20;49.10;;;;;;5071080;28;20044;-59
2021/06/05 12:08:38;;;;;;;16.08;2.70;;;26.10;49.50;;;;;;5071334;28;20059;-59
2021/06/05 12:12:01;;;;;;;10.63;3.33;;;26.00;51.90;;;;;;5070808;28;20048;-59
2021/06/05 12:15:25;;;;;;;11.00;3.63;;;26.00;52.90;;;;;;5071080;28;20047;-59
2021/06/05 12:18:29;;;;;;;6.95;3.08;;;26.00;53.70;;;;;;5071032;28;20051;-59
2021/06/05 12:21:37;;;;;;;9.82;3.03;;;25.90;54.10;;;;;;5070918;28;20490;-59
2021/06/05 12:24:50;;;;;;;7.15;2.30;;;25.90;55.90;;;;;;5070946;28;20036;-59
2021/06/05 12:28:08;;;;;;;8.40;2.80;;;25.90;54.90;;;;;;5070867;28;20530;-59
2021/06/05 12:31:32;;;;;;;6.03;2.88;;;25.80;57.90;;;;;;5070732;28;20071;-59
2021/06/05 12:34:38;;;;;;;7.50;2.75;;;25.80;59.50;;;;;;5070721;28;20055;-59
2021/06/05 12:37:49;;;;;;;8.25;2.63;;;25.90;60.30;;;;;;5070865;28;20059;-59
2021/06/05 12:40:58;;;;;;;7.63;3.30;;;25.90;59.30;;;;;;5070927;28;20047;-59
2021/06/05 12:44:03;;;;;;;13.30;3.60;;;26.00;59.40;;;;;;5071046;28;20055;-59
2021/06/05 12:47:11;;;;;;;9.40;3.15;;;26.00;59.90;;;;;;5070723;28;20626;-59
2021/06/05 12:50:19;;;;;;;3.80;2.65;;;26.00;61.70;;;;;;5070644;28;20400;-60
2021/06/05 12:53:25;;;;;;;5.13;2.88;;;26.10;61.70;;;;;;5070941;28;20123;-59
2021/06/05 12:56:40;;;;;;;6.88;3.33;;;26.20;61.50;;;;;;5070643;28;20040;-59
2021/06/05 12:59:44;;;;;;;6.05;3.38;;;26.20;61.70;;;;;;5072235;28;20094;-60
2021/06/05 13:02:51;;;;;;;4.80;3.08;;;26.30;62.30;;;;;;5074550;28;20035;-61
2021/06/05 13:06:06;;;;;;;5.85;2.88;;;26.30;61.80;;;;;;5074614;28;20055;-60
2021/06/05 13:09:26;;;;;;;4.82;2.70;;;26.40;61.20;;;;;;5074392;28;20431;-63
2021/06/05 13:12:31;;;;;;;7.35;3.08;;;26.40;59.60;;;;;;5074372;28;20035;-60
2021/06/05 13:15:43;;;;;;;4.18;3.13;;;26.40;59.60;;;;;;5074359;28;20040;-61
2021/06/05 13:18:51;;;;;;;7.88;3.15;;;26.40;60.20;;;;;;5074370;28;20043;-61
2021/06/05 13:22:07;;;;;;;6.00;3.33;;;26.40;57.90;;;;;;5074364;28;20071;-60
2021/06/05 13:25:27;;;;;;;4.72;3.33;;;26.40;57.20;;;;;;5074041;28;20047;-60
2021/06/05 13:28:32;;;;;;;7.57;3.47;;;26.40;57.40;;;;;;5074060;28;20056;-60
2021/06/05 13:31:49;;;;;;;7.68;2.97;;;26.40;57.80;;;;;;5073842;28;20043;-60
2021/06/05 13:34:53;;;;;;;11.23;3.53;;;26.40;57.60;;;;;;5074097;28;20043;-60
2021/06/05 13:38:02;;;;;;;8.88;2.85;;;26.40;58.10;;;;;;5073713;28;20039;-60
2021/06/05 13:41:06;;;;;;;15.48;4.65;;;26.40;57.50;;;;;;5073501;28;20072;-60
2021/06/05 13:44:11;;;;;;;3.90;2.80;;;26.30;56.10;;;;;;5073674;28;20052;-60
2021/06/05 13:47:15;;;;;;;6.38;2.92;;;26.30;55.70;;;;;;5073576;28;20051;-60
2021/06/05 13:50:25;;;;;;;15.75;3.25;;;26.30;55.30;;;;;;5073454;28;20043;-60
2021/06/05 13:53:35;;;;;;;4.20;2.53;;;26.30;54.60;;;;;;5074042;28;20044;-60
2021/06/05 13:56:39;;;;;;;4.43;2.53;;;26.30;54.50;;;;;;5073689;28;20047;-60
2021/06/05 13:59:43;;;;;;;5.05;2.83;;;26.20;54.90;;;;;;5073552;28;20063;-60
2021/06/05 14:02:47;;;;;;;3.95;2.33;;;26.20;54.70;;;;;;5073228;28;20051;-61
2021/06/05 14:05:52;;;;;;;8.23;2.70;;;26.20;54.90;;;;;;5073269;28;20051;-60
2021/06/05 14:08:56;;;;;;;7.75;2.80;;;26.20;55.20;;;;;;5072783;28;20046;-60
2021/06/05 14:12:00;;;;;;;6.70;4.03;;;26.20;54.60;;;;;;5071248;28;20051;-60
2021/06/05 14:15:08;;;;;;;4.70;2.97;;;26.10;53.00;;;;;;5073164;28;20051;-60
2021/06/05 14:18:15;;;;;;;7.68;3.88;;;26.10;52.70;;;;;;5073172;28;20047;-60
2021/06/05 14:21:19;;;;;;;6.05;3.60;;;26.10;54.80;;;;;;5073128;28;20044;-60
2021/06/05 14:24:23;;;;;;;9.30;4.32;;;26.10;56.50;;;;;;5072830;28;20222;-60
2021/06/05 14:27:27;;;;;;;29.77;18.33;;;26.00;53.90;;;;;;5072685;28;20403;-60
2021/06/05 14:30:36;;;;;;;24.27;15.98;;;26.00;53.20;;;;;;5072520;28;20391;-60
2021/06/05 14:33:41;;;;;;;19.08;11.30;;;26.00;53.80;;;;;;5072163;28;20060;-60
2021/06/05 14:36:46;;;;;;;10.90;6.55;;;26.00;54.70;;;;;;5072506;28;20506;-60
2021/06/05 14:39:50;;;;;;;12.02;6.78;;;26.10;56.30;;;;;;5072545;28;20047;-60
2021/06/05 14:42:54;;;;;;;11.98;5.18;;;26.10;59.70;;;;;;5072576;28;20043;-60
2021/06/05 14:46:00;;;;;;;9.85;4.03;;;26.10;60.00;;;;;;5072350;28;20503;-60
2021/06/05 14:49:04;;;;;;;11.00;6.15;;;26.10;60.00;;;;;;5072295;28;20047;-60
2021/06/05 14:52:09;;;;;;;10.23;6.22;;;26.00;60.70;;;;;;5072239;28;20043;-60
2021/06/05 14:55:16;;;;;;;12.32;4.97;;;26.00;60.40;;;;;;5071929;28;20056;-60
2021/06/05 14:58:20;;;;;;;9.52;4.03;;;26.00;60.30;;;;;;5072159;28;20048;-60
2021/06/05 15:01:25;;;;;;;6.78;3.70;;;26.00;60.90;;;;;;5071843;28;20044;-60
2021/06/05 15:04:29;;;;;;;13.75;3.88;;;26.00;62.60;;;;;;5072307;28;20059;-59
2021/06/05 15:07:33;;;;;;;8.75;4.03;;;25.90;63.20;;;;;;5071912;28;20066;-59
2021/06/05 15:10:38;;;;;;;3.72;3.03;;;26.00;64.10;;;;;;5071899;28;20064;-59
2021/06/05 15:13:42;;;;;;;7.75;4.30;;;26.00;64.70;;;;;;5071543;28;20047;-59
2021/06/05 15:16:46;;;;;;;11.40;3.72;;;26.00;65.90;;;;;;5071373;28;20040;-59
2021/06/05 15:19:51;;;;;;;4.22;3.28;;;26.00;66.20;;;;;;5071464;28;20047;-59
2021/06/05 15:22:55;;;;;;;9.38;4.18;;;26.00;65.90;;;;;;5070536;28;20400;-60
2021/06/05 15:25:58;;;;;;;10.65;3.30;;;26.00;65.60;;;;;;5071674;28;20048;-60
2021/06/05 15:29:03;;;;;;;7.60;4.40;;;26.00;65.80;;;;;;5071032;28;20051;-60
2021/06/05 15:32:07;;;;;;;8.00;4.40;;;25.90;66.20;;;;;;5071289;28;20047;-60
2021/06/05 15:35:13;;;;;;;5.55;3.22;;;25.90;66.90;;;;;;5071179;28;20056;-59
2021/06/05 15:38:19;;;;;;;6.38;2.70;;;25.90;67.20;;;;;;5071213;28;20056;-59
2021/06/05 15:41:24;;;;;;;10.60;2.90;;;25.90;66.60;;;;;;5071221;28;20431;-59
2021/06/05 15:44:28;;;;;;;6.15;3.05;;;25.90;66.00;;;;;;5071254;28;20051;-59
2021/06/05 15:47:32;;;;;;;7.03;3.50;;;25.80;63.90;;;;;;5071074;28;20060;-59
2021/06/05 15:50:36;;;;;;;13.60;4.90;;;25.80;64.30;;;;;;5070866;28;20035;-59
2021/06/05 15:53:42;;;;;;;7.57;3.70;;;25.80;64.70;;;;;;5070955;28;20051;-59
2021/06/05 15:56:46;;;;;;;10.90;3.78;;;25.80;64.60;;;;;;5070735;28;20038;-59
2021/06/05 15:59:50;;;;;;;5.75;3.35;;;25.70;64.00;;;;;;5070891;28;20039;-59
2021/06/05 16:02:54;;;;;;;7.75;3.40;;;25.70;64.00;;;;;;5071022;28;20043;-59
2021/06/05 16:05:59;;;;;;;10.70;2.92;;;25.70;63.20;;;;;;5071004;28;20059;-59
2021/06/05 16:09:05;;;;;;;9.10;3.05;;;25.80;63.20;;;;;;5070593;28;20059;-59